sensor_id;sensor_type;location;lat;lon;timestamp;P1;durP1;ratioP1;P2;durP2;ratioP2
20449;SDS011;10384;51.940;8.432;2023-07-20T00:02:22;6.67;;;4.40;;
20449;SDS011;10384;51.940;8.432;2023-07-20T00:04:48;5.27;;;3.73;;
20449;SDS011;10384;51.940;8.432;2023-07-20T00:07:14;5.13;;;3.73;;
20449;SDS011;10384;51.940;8.432;2023-07-20T00:09:40;7.63;;;4.07;;
20449;SDS011;10384;51.940;8.432;2023-07-20T00:12:06;4.63;;;3.60;;
20449;SDS011;10384;51.940;8.432;2023-07-20T00:14:32;8.13;;;4.40;;
20449;SDS011;10384;51.940;8.432;2023-07-20T00:16:58;7.77;;;4.70;;
20449;SDS011;10384;51.940;8.432;2023-07-20T00:19:27;7.53;;;4.40;;
20449;SDS011;10384;51.940;8.432;2023-07-20T00:21:53;6.07;;;4.13;;
20449;SDS011;10384;51.940;8.432;2023-07-20T00:24:20;7.40;;;3.97;;
20449;SDS011;10384;51.940;8.432;2023-07-20T00:26:46;5.20;;;3.87;;
20449;SDS011;10384;51.940;8.432;2023-07-20T00:29:21;7.50;;;4.13;;
20449;SDS011;10384;51.940;8.432;2023-07-20T00:31:47;7.13;;;3.93;;
20449;SDS011;10384;51.940;8.432;2023-07-20T00:34:13;4.53;;;3.40;;
20449;SDS011;10384;51.940;8.432;2023-07-20T00:36:39;6.13;;;4.10;;
20449;SDS011;10384;51.940;8.432;2023-07-20T00:39:06;6.17;;;4.10;;
20449;SDS011;10384;51.940;8.432;2023-07-20T00:41:32;7.33;;;4.20;;
20449;SDS011;10384;51.940;8.432;2023-07-20T00:43:58;6.13;;;4.30;;
20449;SDS011;10384;51.940;8.432;2023-07-20T00:46:24;6.37;;;4.40;;
20449;SDS011;10384;51.940;8.432;2023-07-20T00:48:50;7.20;;;4.23;;
20449;SDS011;10384;51.940;8.432;2023-07-20T00:51:16;8.80;;;4.47;;
20449;SDS011;10384;51.940;8.432;2023-07-20T00:53:42;6.13;;;4.13;;
20449;SDS011;10384;51.940;8.432;2023-07-20T00:56:08;7.50;;;4.80;;
20449;SDS011;10384;51.940;8.432;2023-07-20T00:58:35;7.70;;;4.30;;
20449;SDS011;10384;51.940;8.432;2023-07-20T01:01:01;6.50;;;4.43;;
20449;SDS011;10384;51.940;8.432;2023-07-20T01:03:26;5.53;;;4.00;;
20449;SDS011;10384;51.940;8.432;2023-07-20T01:08:23;8.53;;;4.77;;
20449;SDS011;10384;51.940;8.432;2023-07-20T01:10:51;9.13;;;5.10;;
20449;SDS011;10384;51.940;8.432;2023-07-20T01:13:20;6.10;;;4.20;;
20449;SDS011;10384;51.940;8.432;2023-07-20T01:15:50;6.00;;;3.97;;
20449;SDS011;10384;51.940;8.432;2023-07-20T01:18:19;6.53;;;4.70;;
20449;SDS011;10384;51.940;8.432;2023-07-20T01:20:45;6.90;;;4.33;;
20449;SDS011;10384;51.940;8.432;2023-07-20T01:23:28;7.23;;;5.23;;
20449;SDS011;10384;51.940;8.432;2023-07-20T01:31:46;7.53;;;4.80;;
20449;SDS011;10384;51.940;8.432;2023-07-20T01:34:17;8.83;;;4.77;;
20449;SDS011;10384;51.940;8.432;2023-07-20T01:36:43;7.30;;;5.23;;
20449;SDS011;10384;51.940;8.432;2023-07-20T01:39:10;9.17;;;4.63;;
20449;SDS011;10384;51.940;8.432;2023-07-20T01:41:37;7.83;;;4.93;;
20449;SDS011;10384;51.940;8.432;2023-07-20T01:44:03;6.40;;;4.40;;
20449;SDS011;10384;51.940;8.432;2023-07-20T01:46:29;6.03;;;4.30;;
20449;SDS011;10384;51.940;8.432;2023-07-20T01:48:55;6.53;;;4.80;;
20449;SDS011;10384;51.940;8.432;2023-07-20T01:51:21;6.40;;;4.23;;
20449;SDS011;10384;51.940;8.432;2023-07-20T01:53:46;7.80;;;4.73;;
20449;SDS011;10384;51.940;8.432;2023-07-20T01:56:13;8.63;;;4.77;;
20449;SDS011;10384;51.940;8.432;2023-07-20T01:58:39;8.40;;;4.93;;
20449;SDS011;10384;51.940;8.432;2023-07-20T02:01:05;16.60;;;8.03;;
20449;SDS011;10384;51.940;8.432;2023-07-20T02:03:31;11.77;;;6.23;;
20449;SDS011;10384;51.940;8.432;2023-07-20T02:05:56;12.80;;;7.03;;
20449;SDS011;10384;51.940;8.432;2023-07-20T02:08:22;16.07;;;8.20;;
20449;SDS011;10384;51.940;8.432;2023-07-20T02:10:48;18.80;;;7.43;;
20449;SDS011;10384;51.940;8.432;2023-07-20T02:13:14;19.93;;;9.23;;
20449;SDS011;10384;51.940;8.432;2023-07-20T02:15:41;19.43;;;8.77;;
20449;SDS011;10384;51.940;8.432;2023-07-20T02:18:07;18.77;;;8.67;;
20449;SDS011;10384;51.940;8.432;2023-07-20T02:20:33;19.00;;;9.37;;
20449;SDS011;10384;51.940;8.432;2023-07-20T02:22:59;22.40;;;10.50;;
20449;SDS011;10384;51.940;8.432;2023-07-20T02:25:24;21.97;;;9.83;;
20449;SDS011;10384;51.940;8.432;2023-07-20T02:27:50;22.27;;;10.23;;
20449;SDS011;10384;51.940;8.432;2023-07-20T02:30:16;27.77;;;11.97;;
20449;SDS011;10384;51.940;8.432;2023-07-20T02:32:42;24.57;;;10.70;;
20449;SDS011;10384;51.940;8.432;2023-07-20T02:35:10;30.93;;;11.57;;
20449;SDS011;10384;51.940;8.432;2023-07-20T02:37:36;27.77;;;10.93;;
20449;SDS011;10384;51.940;8.432;2023-07-20T02:40:02;31.53;;;12.57;;
20449;SDS011;10384;51.940;8.432;2023-07-20T02:42:29;28.53;;;11.73;;
20449;SDS011;10384;51.940;8.432;2023-07-20T02:44:55;25.60;;;10.80;;
20449;SDS011;10384;51.940;8.432;2023-07-20T02:47:20;29.73;;;11.37;;
20449;SDS011;10384;51.940;8.432;2023-07-20T02:49:46;23.27;;;10.70;;
20449;SDS011;10384;51.940;8.432;2023-07-20T02:52:11;24.13;;;11.07;;
20449;SDS011;10384;51.940;8.432;2023-07-20T02:54:37;27.33;;;11.13;;
20449;SDS011;10384;51.940;8.432;2023-07-20T02:57:05;22.90;;;10.73;;
20449;SDS011;10384;51.940;8.432;2023-07-20T02:59:31;23.53;;;11.67;;
20449;SDS011;10384;51.940;8.432;2023-07-20T03:01:57;26.03;;;11.60;;
20449;SDS011;10384;51.940;8.432;2023-07-20T03:04:25;33.10;;;10.80;;
20449;SDS011;10384;51.940;8.432;2023-07-20T03:06:51;30.53;;;11.57;;
20449;SDS011;10384;51.940;8.432;2023-07-20T03:09:17;24.53;;;9.93;;
20449;SDS011;10384;51.940;8.432;2023-07-20T03:11:43;22.70;;;10.53;;
20449;SDS011;10384;51.940;8.432;2023-07-20T03:14:09;23.80;;;9.43;;
20449;SDS011;10384;51.940;8.432;2023-07-20T03:16:35;19.97;;;8.63;;
20449;SDS011;10384;51.940;8.432;2023-07-20T03:19:02;17.30;;;8.90;;
20449;SDS011;10384;51.940;8.432;2023-07-20T03:21:28;20.50;;;10.03;;
20449;SDS011;10384;51.940;8.432;2023-07-20T03:23:54;18.87;;;8.80;;
20449;SDS011;10384;51.940;8.432;2023-07-20T03:26:20;18.90;;;9.80;;
20449;SDS011;10384;51.940;8.432;2023-07-20T03:28:46;17.77;;;8.50;;
20449;SDS011;10384;51.940;8.432;2023-07-20T03:31:12;16.53;;;8.27;;
20449;SDS011;10384;51.940;8.432;2023-07-20T03:33:40;15.93;;;8.30;;
20449;SDS011;10384;51.940;8.432;2023-07-20T03:36:06;16.60;;;8.83;;
20449;SDS011;10384;51.940;8.432;2023-07-20T03:38:32;17.90;;;8.17;;
20449;SDS011;10384;51.940;8.432;2023-07-20T03:40:58;17.70;;;8.40;;
20449;SDS011;10384;51.940;8.432;2023-07-20T03:43:25;15.10;;;7.27;;
20449;SDS011;10384;51.940;8.432;2023-07-20T03:45:51;13.67;;;7.37;;
20449;SDS011;10384;51.940;8.432;2023-07-20T03:48:18;16.60;;;7.53;;
20449;SDS011;10384;51.940;8.432;2023-07-20T03:50:45;14.20;;;7.00;;
20449;SDS011;10384;51.940;8.432;2023-07-20T03:53:11;14.63;;;6.73;;
20449;SDS011;10384;51.940;8.432;2023-07-20T03:55:37;11.03;;;6.70;;
20449;SDS011;10384;51.940;8.432;2023-07-20T03:58:05;11.80;;;7.00;;
20449;SDS011;10384;51.940;8.432;2023-07-20T04:00:31;10.70;;;6.47;;
20449;SDS011;10384;51.940;8.432;2023-07-20T04:02:57;12.23;;;7.23;;
20449;SDS011;10384;51.940;8.432;2023-07-20T04:05:24;12.40;;;6.37;;
20449;SDS011;10384;51.940;8.432;2023-07-20T04:07:50;9.63;;;6.30;;
20449;SDS011;10384;51.940;8.432;2023-07-20T04:10:17;12.90;;;6.27;;
20449;SDS011;10384;51.940;8.432;2023-07-20T04:12:43;10.93;;;6.23;;
20449;SDS011;10384;51.940;8.432;2023-07-20T04:15:10;9.17;;;5.63;;
20449;SDS011;10384;51.940;8.432;2023-07-20T04:17:36;9.47;;;5.73;;
20449;SDS011;10384;51.940;8.432;2023-07-20T04:20:02;10.13;;;5.57;;
20449;SDS011;10384;51.940;8.432;2023-07-20T04:22:29;8.80;;;5.07;;
20449;SDS011;10384;51.940;8.432;2023-07-20T04:24:55;5.10;;;3.40;;
20449;SDS011;10384;51.940;8.432;2023-07-20T04:27:21;3.70;;;2.83;;
20449;SDS011;10384;51.940;8.432;2023-07-20T04:29:47;7.40;;;4.90;;
20449;SDS011;10384;51.940;8.432;2023-07-20T04:32:13;6.67;;;2.97;;
20449;SDS011;10384;51.940;8.432;2023-07-20T04:34:39;4.93;;;2.37;;
20449;SDS011;10384;51.940;8.432;2023-07-20T04:37:05;5.00;;;2.87;;
20449;SDS011;10384;51.940;8.432;2023-07-20T04:39:31;7.60;;;4.27;;
20449;SDS011;10384;51.940;8.432;2023-07-20T04:41:57;6.43;;;3.03;;
20449;SDS011;10384;51.940;8.432;2023-07-20T04:44:23;3.23;;;2.60;;
20449;SDS011;10384;51.940;8.432;2023-07-20T04:46:49;5.40;;;2.90;;
20449;SDS011;10384;51.940;8.432;2023-07-20T04:49:15;4.67;;;2.63;;
20449;SDS011;10384;51.940;8.432;2023-07-20T04:51:41;3.30;;;2.40;;
20449;SDS011;10384;51.940;8.432;2023-07-20T04:54:07;4.97;;;2.70;;
20449;SDS011;10384;51.940;8.432;2023-07-20T04:56:33;6.30;;;2.60;;
20449;SDS011;10384;51.940;8.432;2023-07-20T04:58:59;5.77;;;2.43;;
20449;SDS011;10384;51.940;8.432;2023-07-20T05:01:25;3.77;;;2.60;;
20449;SDS011;10384;51.940;8.432;2023-07-20T05:03:54;3.17;;;2.60;;
20449;SDS011;10384;51.940;8.432;2023-07-20T05:06:20;4.83;;;3.20;;
20449;SDS011;10384;51.940;8.432;2023-07-20T05:08:46;6.77;;;2.80;;
20449;SDS011;10384;51.940;8.432;2023-07-20T05:11:12;5.10;;;2.77;;
20449;SDS011;10384;51.940;8.432;2023-07-20T05:13:38;5.20;;;2.90;;
20449;SDS011;10384;51.940;8.432;2023-07-20T05:16:04;6.50;;;3.10;;
20449;SDS011;10384;51.940;8.432;2023-07-20T05:18:30;4.07;;;2.60;;
20449;SDS011;10384;51.940;8.432;2023-07-20T05:20:56;4.60;;;3.00;;
20449;SDS011;10384;51.940;8.432;2023-07-20T05:23:22;5.00;;;3.10;;
20449;SDS011;10384;51.940;8.432;2023-07-20T05:25:54;5.10;;;2.97;;
20449;SDS011;10384;51.940;8.432;2023-07-20T05:28:21;4.13;;;3.33;;
20449;SDS011;10384;51.940;8.432;2023-07-20T05:30:48;6.43;;;2.87;;
20449;SDS011;10384;51.940;8.432;2023-07-20T05:33:14;5.13;;;3.20;;
20449;SDS011;10384;51.940;8.432;2023-07-20T05:35:40;5.20;;;3.20;;
20449;SDS011;10384;51.940;8.432;2023-07-20T05:38:06;4.57;;;2.77;;
20449;SDS011;10384;51.940;8.432;2023-07-20T05:40:32;5.83;;;3.27;;
20449;SDS011;10384;51.940;8.432;2023-07-20T05:42:58;4.40;;;3.30;;
20449;SDS011;10384;51.940;8.432;2023-07-20T05:45:25;6.50;;;3.47;;
20449;SDS011;10384;51.940;8.432;2023-07-20T05:47:51;5.37;;;3.50;;
20449;SDS011;10384;51.940;8.432;2023-07-20T05:50:17;5.93;;;3.30;;
20449;SDS011;10384;51.940;8.432;2023-07-20T05:52:43;6.73;;;3.20;;
20449;SDS011;10384;51.940;8.432;2023-07-20T05:55:09;5.63;;;3.10;;
20449;SDS011;10384;51.940;8.432;2023-07-20T05:57:35;6.73;;;2.67;;
20449;SDS011;10384;51.940;8.432;2023-07-20T06:00:04;5.17;;;3.30;;
20449;SDS011;10384;51.940;8.432;2023-07-20T06:02:31;5.07;;;3.10;;
20449;SDS011;10384;51.940;8.432;2023-07-20T06:04:58;3.93;;;2.73;;
20449;SDS011;10384;51.940;8.432;2023-07-20T06:07:24;4.17;;;3.07;;
20449;SDS011;10384;51.940;8.432;2023-07-20T06:09:50;4.53;;;2.80;;
20449;SDS011;10384;51.940;8.432;2023-07-20T06:12:16;4.67;;;2.43;;
20449;SDS011;10384;51.940;8.432;2023-07-20T06:14:42;4.43;;;2.30;;
20449;SDS011;10384;51.940;8.432;2023-07-20T06:17:08;4.77;;;2.77;;
20449;SDS011;10384;51.940;8.432;2023-07-20T06:19:34;6.00;;;2.53;;
20449;SDS011;10384;51.940;8.432;2023-07-20T06:22:01;5.20;;;2.73;;
20449;SDS011;10384;51.940;8.432;2023-07-20T06:24:27;3.37;;;2.30;;
20449;SDS011;10384;51.940;8.432;2023-07-20T06:26:52;4.23;;;2.43;;
20449;SDS011;10384;51.940;8.432;2023-07-20T06:29:18;5.83;;;2.23;;
20449;SDS011;10384;51.940;8.432;2023-07-20T06:31:44;4.53;;;2.30;;
20449;SDS011;10384;51.940;8.432;2023-07-20T06:34:10;2.83;;;2.20;;
20449;SDS011;10384;51.940;8.432;2023-07-20T06:36:36;3.67;;;1.80;;
20449;SDS011;10384;51.940;8.432;2023-07-20T06:39:03;2.70;;;1.90;;
20449;SDS011;10384;51.940;8.432;2023-07-20T06:41:29;2.60;;;1.70;;
20449;SDS011;10384;51.940;8.432;2023-07-20T06:43:55;4.63;;;2.80;;
20449;SDS011;10384;51.940;8.432;2023-07-20T06:46:24;2.27;;;1.80;;
20449;SDS011;10384;51.940;8.432;2023-07-20T06:48:50;3.73;;;1.87;;
20449;SDS011;10384;51.940;8.432;2023-07-20T06:51:16;4.37;;;3.30;;
20449;SDS011;10384;51.940;8.432;2023-07-20T06:53:43;2.80;;;2.23;;
20449;SDS011;10384;51.940;8.432;2023-07-20T06:56:09;3.17;;;2.20;;
20449;SDS011;10384;51.940;8.432;2023-07-20T06:58:36;4.40;;;1.77;;
20449;SDS011;10384;51.940;8.432;2023-07-20T07:01:05;3.00;;;1.70;;
20449;SDS011;10384;51.940;8.432;2023-07-20T07:03:31;3.63;;;1.83;;
20449;SDS011;10384;51.940;8.432;2023-07-20T07:05:58;2.40;;;1.63;;
20449;SDS011;10384;51.940;8.432;2023-07-20T07:08:24;4.60;;;1.50;;
20449;SDS011;10384;51.940;8.432;2023-07-20T07:10:50;2.80;;;1.33;;
20449;SDS011;10384;51.940;8.432;2023-07-20T07:13:16;3.63;;;1.57;;
20449;SDS011;10384;51.940;8.432;2023-07-20T07:15:42;2.40;;;1.70;;
20449;SDS011;10384;51.940;8.432;2023-07-20T07:18:08;2.13;;;1.70;;
20449;SDS011;10384;51.940;8.432;2023-07-20T07:20:34;2.70;;;1.73;;
20449;SDS011;10384;51.940;8.432;2023-07-20T07:23:00;1.30;;;1.13;;
20449;SDS011;10384;51.940;8.432;2023-07-20T07:25:26;3.27;;;1.80;;
20449;SDS011;10384;51.940;8.432;2023-07-20T07:27:52;3.23;;;2.60;;
20449;SDS011;10384;51.940;8.432;2023-07-20T07:30:18;2.13;;;1.40;;
20449;SDS011;10384;51.940;8.432;2023-07-20T07:32:44;1.43;;;1.00;;
20449;SDS011;10384;51.940;8.432;2023-07-20T07:35:11;1.30;;;1.07;;
20449;SDS011;10384;51.940;8.432;2023-07-20T07:37:37;2.67;;;1.13;;
20449;SDS011;10384;51.940;8.432;2023-07-20T07:40:04;1.90;;;0.80;;
20449;SDS011;10384;51.940;8.432;2023-07-20T07:42:31;1.70;;;0.97;;
20449;SDS011;10384;51.940;8.432;2023-07-20T07:44:56;3.73;;;1.40;;
20449;SDS011;10384;51.940;8.432;2023-07-20T07:47:22;1.23;;;1.13;;
20449;SDS011;10384;51.940;8.432;2023-07-20T07:49:48;1.60;;;1.40;;
20449;SDS011;10384;51.940;8.432;2023-07-20T07:52:15;2.40;;;1.47;;
20449;SDS011;10384;51.940;8.432;2023-07-20T07:54:41;2.20;;;1.80;;
20449;SDS011;10384;51.940;8.432;2023-07-20T07:57:07;2.57;;;1.33;;
20449;SDS011;10384;51.940;8.432;2023-07-20T07:59:33;1.50;;;1.40;;
20449;SDS011;10384;51.940;8.432;2023-07-20T08:02:04;2.80;;;1.00;;
20449;SDS011;10384;51.940;8.432;2023-07-20T08:04:30;1.77;;;1.10;;
20449;SDS011;10384;51.940;8.432;2023-07-20T08:06:56;2.03;;;1.27;;
20449;SDS011;10384;51.940;8.432;2023-07-20T08:09:22;1.77;;;0.97;;
20449;SDS011;10384;51.940;8.432;2023-07-20T08:11:48;1.20;;;1.00;;
20449;SDS011;10384;51.940;8.432;2023-07-20T08:14:14;1.27;;;1.10;;
20449;SDS011;10384;51.940;8.432;2023-07-20T08:16:41;1.00;;;0.90;;
20449;SDS011;10384;51.940;8.432;2023-07-20T08:19:08;1.57;;;1.40;;
20449;SDS011;10384;51.940;8.432;2023-07-20T08:21:34;1.33;;;1.00;;
20449;SDS011;10384;51.940;8.432;2023-07-20T08:24:00;4.77;;;1.40;;
20449;SDS011;10384;51.940;8.432;2023-07-20T08:26:26;1.57;;;0.90;;
20449;SDS011;10384;51.940;8.432;2023-07-20T08:28:52;1.80;;;1.27;;
20449;SDS011;10384;51.940;8.432;2023-07-20T08:31:18;1.47;;;0.83;;
20449;SDS011;10384;51.940;8.432;2023-07-20T08:33:44;1.97;;;1.20;;
20449;SDS011;10384;51.940;8.432;2023-07-20T08:36:10;2.17;;;1.10;;
20449;SDS011;10384;51.940;8.432;2023-07-20T08:38:36;1.33;;;0.70;;
20449;SDS011;10384;51.940;8.432;2023-07-20T08:41:02;0.83;;;0.70;;
20449;SDS011;10384;51.940;8.432;2023-07-20T08:43:28;1.10;;;0.77;;
20449;SDS011;10384;51.940;8.432;2023-07-20T08:45:54;3.23;;;0.80;;
20449;SDS011;10384;51.940;8.432;2023-07-20T08:48:21;1.57;;;0.80;;
20449;SDS011;10384;51.940;8.432;2023-07-20T08:50:50;1.67;;;1.10;;
20449;SDS011;10384;51.940;8.432;2023-07-20T08:53:17;2.37;;;1.00;;
20449;SDS011;10384;51.940;8.432;2023-07-20T08:55:44;1.10;;;1.00;;
20449;SDS011;10384;51.940;8.432;2023-07-20T08:58:12;1.10;;;1.00;;
20449;SDS011;10384;51.940;8.432;2023-07-20T09:00:39;0.97;;;0.90;;
20449;SDS011;10384;51.940;8.432;2023-07-20T09:03:06;4.57;;;1.03;;
20449;SDS011;10384;51.940;8.432;2023-07-20T09:05:33;1.30;;;0.90;;
20449;SDS011;10384;51.940;8.432;2023-07-20T09:08:00;3.70;;;1.30;;
20449;SDS011;10384;51.940;8.432;2023-07-20T09:10:28;2.07;;;0.90;;
20449;SDS011;10384;51.940;8.432;2023-07-20T09:12:54;2.73;;;0.90;;
20449;SDS011;10384;51.940;8.432;2023-07-20T09:15:21;1.83;;;1.00;;
20449;SDS011;10384;51.940;8.432;2023-07-20T09:17:48;0.97;;;0.80;;
20449;SDS011;10384;51.940;8.432;2023-07-20T09:20:15;0.87;;;0.80;;
20449;SDS011;10384;51.940;8.432;2023-07-20T09:22:41;0.83;;;0.60;;
20449;SDS011;10384;51.940;8.432;2023-07-20T09:27:37;0.77;;;0.70;;
20449;SDS011;10384;51.940;8.432;2023-07-20T09:30:04;0.70;;;0.70;;
20449;SDS011;10384;51.940;8.432;2023-07-20T09:32:34;1.30;;;0.90;;
20449;SDS011;10384;51.940;8.432;2023-07-20T09:35:04;0.73;;;0.70;;
20449;SDS011;10384;51.940;8.432;2023-07-20T09:37:30;0.60;;;0.60;;
20449;SDS011;10384;51.940;8.432;2023-07-20T09:39:58;0.47;;;0.47;;
20449;SDS011;10384;51.940;8.432;2023-07-20T09:42:25;0.80;;;0.80;;
20449;SDS011;10384;51.940;8.432;2023-07-20T09:44:52;1.33;;;1.23;;
20449;SDS011;10384;51.940;8.432;2023-07-20T09:47:21;2.80;;;1.37;;
20449;SDS011;10384;51.940;8.432;2023-07-20T09:49:48;3.07;;;1.00;;
20449;SDS011;10384;51.940;8.432;2023-07-20T09:52:14;1.00;;;0.73;;
20449;SDS011;10384;51.940;8.432;2023-07-20T09:54:40;2.60;;;1.00;;
20449;SDS011;10384;51.940;8.432;2023-07-20T09:57:07;1.63;;;0.80;;
20449;SDS011;10384;51.940;8.432;2023-07-20T09:59:38;0.93;;;0.70;;
20449;SDS011;10384;51.940;8.432;2023-07-20T10:02:05;1.27;;;0.80;;
20449;SDS011;10384;51.940;8.432;2023-07-20T10:04:33;1.37;;;0.70;;
20449;SDS011;10384;51.940;8.432;2023-07-20T10:07:00;1.27;;;0.87;;
20449;SDS011;10384;51.940;8.432;2023-07-20T10:09:28;0.80;;;0.70;;
20449;SDS011;10384;51.940;8.432;2023-07-20T10:11:54;2.10;;;0.80;;
20449;SDS011;10384;51.940;8.432;2023-07-20T10:14:22;0.93;;;0.70;;
20449;SDS011;10384;51.940;8.432;2023-07-20T10:16:51;0.73;;;0.73;;
20449;SDS011;10384;51.940;8.432;2023-07-20T10:19:27;1.10;;;0.70;;
20449;SDS011;10384;51.940;8.432;2023-07-20T10:22:00;5.90;;;2.07;;
20449;SDS011;10384;51.940;8.432;2023-07-20T10:24:27;2.37;;;1.00;;
20449;SDS011;10384;51.940;8.432;2023-07-20T10:26:54;1.60;;;0.80;;
20449;SDS011;10384;51.940;8.432;2023-07-20T10:29:21;1.27;;;0.70;;
20449;SDS011;10384;51.940;8.432;2023-07-20T10:31:48;1.07;;;0.80;;
20449;SDS011;10384;51.940;8.432;2023-07-20T10:34:14;1.00;;;0.90;;
20449;SDS011;10384;51.940;8.432;2023-07-20T10:36:44;1.13;;;1.03;;
20449;SDS011;10384;51.940;8.432;2023-07-20T10:39:30;1.40;;;1.20;;
20449;SDS011;10384;51.940;8.432;2023-07-20T10:42:09;1.77;;;1.17;;
20449;SDS011;10384;51.940;8.432;2023-07-20T10:44:39;2.87;;;1.30;;
20449;SDS011;10384;51.940;8.432;2023-07-20T10:47:09;1.00;;;0.90;;
20449;SDS011;10384;51.940;8.432;2023-07-20T10:49:35;3.93;;;1.37;;
20449;SDS011;10384;51.940;8.432;2023-07-20T10:52:21;1.90;;;1.20;;
20449;SDS011;10384;51.940;8.432;2023-07-20T10:54:47;1.20;;;1.10;;
20449;SDS011;10384;51.940;8.432;2023-07-20T10:57:31;1.40;;;1.27;;
20449;SDS011;10384;51.940;8.432;2023-07-20T11:00:07;1.37;;;1.27;;
20449;SDS011;10384;51.940;8.432;2023-07-20T11:03:09;2.83;;;1.40;;
20449;SDS011;10384;51.940;8.432;2023-07-20T11:05:32;1.77;;;1.57;;
20449;SDS011;10384;51.940;8.432;2023-07-20T11:07:59;1.70;;;1.60;;
20449;SDS011;10384;51.940;8.432;2023-07-20T11:10:25;2.57;;;1.57;;
20449;SDS011;10384;51.940;8.432;2023-07-20T11:15:45;2.60;;;1.63;;
20449;SDS011;10384;51.940;8.432;2023-07-20T11:18:12;1.60;;;1.50;;
20449;SDS011;10384;51.940;8.432;2023-07-20T11:20:38;3.33;;;1.97;;
20449;SDS011;10384;51.940;8.432;2023-07-20T11:23:04;2.20;;;1.53;;
20449;SDS011;10384;51.940;8.432;2023-07-20T11:25:40;2.30;;;1.93;;
20449;SDS011;10384;51.940;8.432;2023-07-20T11:28:06;1.90;;;1.70;;
20449;SDS011;10384;51.940;8.432;2023-07-20T11:30:34;2.60;;;2.30;;
20449;SDS011;10384;51.940;8.432;2023-07-20T11:33:00;5.70;;;1.73;;
20449;SDS011;10384;51.940;8.432;2023-07-20T11:35:26;2.00;;;1.40;;
20449;SDS011;10384;51.940;8.432;2023-07-20T11:37:52;2.77;;;1.50;;
20449;SDS011;10384;51.940;8.432;2023-07-20T11:40:18;1.63;;;1.50;;
20449;SDS011;10384;51.940;8.432;2023-07-20T11:42:44;1.60;;;1.50;;
20449;SDS011;10384;51.940;8.432;2023-07-20T11:45:11;1.60;;;1.50;;
20449;SDS011;10384;51.940;8.432;2023-07-20T11:47:40;2.33;;;1.80;;
20449;SDS011;10384;51.940;8.432;2023-07-20T11:50:07;1.93;;;1.73;;
20449;SDS011;10384;51.940;8.432;2023-07-20T11:52:33;2.47;;;1.80;;
20449;SDS011;10384;51.940;8.432;2023-07-20T11:55:00;2.83;;;1.90;;
20449;SDS011;10384;51.940;8.432;2023-07-20T11:57:27;2.60;;;2.20;;
20449;SDS011;10384;51.940;8.432;2023-07-20T11:59:53;2.17;;;1.87;;
20449;SDS011;10384;51.940;8.432;2023-07-20T12:02:23;2.47;;;1.80;;
20449;SDS011;10384;51.940;8.432;2023-07-20T12:04:50;2.17;;;1.97;;
20449;SDS011;10384;51.940;8.432;2023-07-20T12:07:18;1.67;;;1.57;;
20449;SDS011;10384;51.940;8.432;2023-07-20T12:09:44;2.10;;;1.77;;
20449;SDS011;10384;51.940;8.432;2023-07-20T12:12:10;1.90;;;1.77;;
20449;SDS011;10384;51.940;8.432;2023-07-20T12:14:39;2.53;;;1.70;;
20449;SDS011;10384;51.940;8.432;2023-07-20T12:17:07;1.90;;;1.50;;
20449;SDS011;10384;51.940;8.432;2023-07-20T12:19:37;2.40;;;1.70;;
20449;SDS011;10384;51.940;8.432;2023-07-20T12:22:05;2.37;;;1.63;;
20449;SDS011;10384;51.940;8.432;2023-07-20T12:24:31;1.50;;;1.40;;
20449;SDS011;10384;51.940;8.432;2023-07-20T12:26:58;2.77;;;1.50;;
20449;SDS011;10384;51.940;8.432;2023-07-20T12:29:24;2.73;;;1.20;;
20449;SDS011;10384;51.940;8.432;2023-07-20T12:31:51;1.67;;;1.10;;
20449;SDS011;10384;51.940;8.432;2023-07-20T12:34:17;1.27;;;1.10;;
20449;SDS011;10384;51.940;8.432;2023-07-20T12:36:43;1.40;;;1.30;;
20449;SDS011;10384;51.940;8.432;2023-07-20T12:39:09;1.43;;;1.10;;
20449;SDS011;10384;51.940;8.432;2023-07-20T12:41:35;1.33;;;1.17;;
20449;SDS011;10384;51.940;8.432;2023-07-20T12:44:01;1.10;;;1.00;;
20449;SDS011;10384;51.940;8.432;2023-07-20T12:46:27;1.20;;;1.00;;
20449;SDS011;10384;51.940;8.432;2023-07-20T12:48:54;2.27;;;1.30;;
20449;SDS011;10384;51.940;8.432;2023-07-20T12:51:20;1.73;;;1.20;;
20449;SDS011;10384;51.940;8.432;2023-07-20T12:53:46;1.63;;;1.10;;
20449;SDS011;10384;51.940;8.432;2023-07-20T12:56:12;1.57;;;1.00;;
20449;SDS011;10384;51.940;8.432;2023-07-20T12:58:38;0.90;;;0.90;;
20449;SDS011;10384;51.940;8.432;2023-07-20T13:01:04;1.57;;;1.23;;
20449;SDS011;10384;51.940;8.432;2023-07-20T13:03:30;1.00;;;1.00;;
20449;SDS011;10384;51.940;8.432;2023-07-20T13:05:56;1.10;;;1.00;;
20449;SDS011;10384;51.940;8.432;2023-07-20T13:08:23;1.93;;;0.90;;
20449;SDS011;10384;51.940;8.432;2023-07-20T13:10:50;1.20;;;0.90;;
20449;SDS011;10384;51.940;8.432;2023-07-20T13:13:16;0.80;;;0.80;;
20449;SDS011;10384;51.940;8.432;2023-07-20T13:15:43;0.83;;;0.83;;
20449;SDS011;10384;51.940;8.432;2023-07-20T13:18:09;2.73;;;0.73;;
20449;SDS011;10384;51.940;8.432;2023-07-20T13:20:35;1.13;;;0.80;;
20449;SDS011;10384;51.940;8.432;2023-07-20T13:23:01;1.00;;;0.80;;
20449;SDS011;10384;51.940;8.432;2023-07-20T13:25:27;0.73;;;0.70;;
20449;SDS011;10384;51.940;8.432;2023-07-20T13:27:53;0.93;;;0.93;;
20449;SDS011;10384;51.940;8.432;2023-07-20T13:30:19;0.80;;;0.80;;
20449;SDS011;10384;51.940;8.432;2023-07-20T13:32:46;0.93;;;0.83;;
20449;SDS011;10384;51.940;8.432;2023-07-20T13:35:12;0.80;;;0.80;;
20449;SDS011;10384;51.940;8.432;2023-07-20T13:37:38;0.87;;;0.80;;
20449;SDS011;10384;51.940;8.432;2023-07-20T13:40:04;1.07;;;0.73;;
20449;SDS011;10384;51.940;8.432;2023-07-20T13:42:31;0.70;;;0.70;;
20449;SDS011;10384;51.940;8.432;2023-07-20T13:44:57;1.10;;;0.90;;
20449;SDS011;10384;51.940;8.432;2023-07-20T13:47:24;0.80;;;0.77;;
20449;SDS011;10384;51.940;8.432;2023-07-20T13:49:50;1.17;;;0.80;;
20449;SDS011;10384;51.940;8.432;2023-07-20T13:52:16;0.70;;;0.70;;
20449;SDS011;10384;51.940;8.432;2023-07-20T13:54:42;1.63;;;0.70;;
20449;SDS011;10384;51.940;8.432;2023-07-20T13:57:09;0.77;;;0.77;;
20449;SDS011;10384;51.940;8.432;2023-07-20T13:59:35;0.53;;;0.53;;
20449;SDS011;10384;51.940;8.432;2023-07-20T14:02:01;3.47;;;0.90;;
20449;SDS011;10384;51.940;8.432;2023-07-20T14:04:27;0.80;;;0.73;;
20449;SDS011;10384;51.940;8.432;2023-07-20T14:06:53;0.67;;;0.67;;
20449;SDS011;10384;51.940;8.432;2023-07-20T14:09:19;1.80;;;0.70;;
20449;SDS011;10384;51.940;8.432;2023-07-20T14:11:45;0.80;;;0.70;;
20449;SDS011;10384;51.940;8.432;2023-07-20T14:14:11;1.00;;;0.70;;
20449;SDS011;10384;51.940;8.432;2023-07-20T14:16:38;1.77;;;0.80;;
20449;SDS011;10384;51.940;8.432;2023-07-20T14:19:04;0.50;;;0.50;;
20449;SDS011;10384;51.940;8.432;2023-07-20T14:21:30;1.60;;;0.57;;
20449;SDS011;10384;51.940;8.432;2023-07-20T14:23:56;2.17;;;0.70;;
20449;SDS011;10384;51.940;8.432;2023-07-20T14:26:23;0.50;;;0.50;;
20449;SDS011;10384;51.940;8.432;2023-07-20T14:28:49;1.03;;;0.60;;
20449;SDS011;10384;51.940;8.432;2023-07-20T14:31:15;1.23;;;0.60;;
20449;SDS011;10384;51.940;8.432;2023-07-20T14:33:41;0.73;;;0.73;;
20449;SDS011;10384;51.940;8.432;2023-07-20T14:36:07;1.83;;;0.67;;
20449;SDS011;10384;51.940;8.432;2023-07-20T14:38:33;0.70;;;0.70;;
20449;SDS011;10384;51.940;8.432;2023-07-20T14:40:59;0.57;;;0.57;;
20449;SDS011;10384;51.940;8.432;2023-07-20T14:43:25;0.70;;;0.70;;
20449;SDS011;10384;51.940;8.432;2023-07-20T14:45:51;0.80;;;0.77;;
20449;SDS011;10384;51.940;8.432;2023-07-20T14:48:19;0.90;;;0.60;;
20449;SDS011;10384;51.940;8.432;2023-07-20T14:50:45;0.60;;;0.60;;
20449;SDS011;10384;51.940;8.432;2023-07-20T14:53:12;0.80;;;0.73;;
20449;SDS011;10384;51.940;8.432;2023-07-20T14:55:38;0.90;;;0.70;;
20449;SDS011;10384;51.940;8.432;2023-07-20T14:58:04;0.70;;;0.70;;